Detroit, Michigan
Current Conditions -  °F | °C
As of 8:00 AM on Friday 28 Nov 2014 (Local Time) from CYQG Reporting Station
Broken Clouds Broken Clouds  
Wind Chill: 10°   Ceiling: 15000
Heat Index: 19°   Visibility: 15mi
Dew Point:   Wind: 7mph
Humidity: 58%   Direction: 330°NNW
Pressure: 30.35"   Gusts: NA
Location:  42.33°N, 83.05°W
Report Text: CYQG 281300Z 33006KT 15SM FEW035 BKN150 M07/M14 A3035 RMK SC1AC7 SC TR SLP287
Loading
Personal Weather Stations






























Interactive Weather Map New forecast layout! Learn more

10-Day Weather Forecast

Advertisements
Track Severe Weather on mobile